createdAt,value
2022-10-07T00:00:56.226Z,10.19
2022-10-07T00:01:58.880Z,10.21
2022-10-07T00:03:01.473Z,10.27
2022-10-07T00:04:04.170Z,10.25
2022-10-07T00:05:07.517Z,10.24
2022-10-07T00:06:13.668Z,10.29
2022-10-07T00:07:16.506Z,10.26
2022-10-07T00:08:18.943Z,10.28
2022-10-07T00:09:21.442Z,10.30
2022-10-07T00:10:23.947Z,10.31
2022-10-07T00:11:28.527Z,10.29
2022-10-07T00:12:31.195Z,10.29
2022-10-07T00:13:34.126Z,10.25
2022-10-07T00:14:36.588Z,10.26
2022-10-07T00:15:39.559Z,10.23
2022-10-07T00:16:42.341Z,10.27
2022-10-07T00:17:45.574Z,10.22
2022-10-07T00:18:48.806Z,10.21
2022-10-07T00:19:51.266Z,10.19
2022-10-07T00:20:53.942Z,10.20
2022-10-07T00:21:56.512Z,10.20
2022-10-07T00:22:59.709Z,10.13
2022-10-07T00:24:02.549Z,10.15
2022-10-07T00:25:05.385Z,10.15
2022-10-07T00:26:10.235Z,10.16
2022-10-07T00:27:12.707Z,10.18
2022-10-07T00:28:19.402Z,10.21
2022-10-07T00:29:21.963Z,10.23
2022-10-07T00:30:27.105Z,10.16
2022-10-07T00:31:35.250Z,10.18
2022-10-07T00:32:37.518Z,10.11
2022-10-07T00:33:42.326Z,10.13
2022-10-07T00:34:44.817Z,10.20
2022-10-07T00:35:49.370Z,10.10
2022-10-07T00:36:51.697Z,10.14
2022-10-07T00:37:54.064Z,10.13
2022-10-07T00:38:58.604Z,10.12
2022-10-07T00:40:00.937Z,10.15
2022-10-07T00:41:03.453Z,10.12
2022-10-07T00:42:05.888Z,10.14
2022-10-07T00:43:25.238Z,10.19
2022-10-07T00:44:40.100Z,10.23
2022-10-07T00:45:45.757Z,10.22
2022-10-07T00:46:48.445Z,10.24
2022-10-07T00:47:51.842Z,10.19
2022-10-07T00:48:54.896Z,10.19
2022-10-07T00:50:10.421Z,10.21
2022-10-07T00:51:16.372Z,10.25
2022-10-07T00:52:22.139Z,10.22
2022-10-07T00:53:27.525Z,10.20
2022-10-07T00:54:30.417Z,10.21
2022-10-07T00:55:32.990Z,10.24
2022-10-07T00:56:35.643Z,10.27
2022-10-07T00:57:39.701Z,10.28
2022-10-07T00:58:43.241Z,10.32
2022-10-07T00:59:48.190Z,10.28
2022-10-07T01:00:51.082Z,10.28
2022-10-07T01:01:53.490Z,10.20
2022-10-07T01:02:55.923Z,10.21
2022-10-07T01:03:58.392Z,10.24
2022-10-07T01:05:03.650Z,10.25
2022-10-07T01:06:06.596Z,10.26
2022-10-07T01:07:09.571Z,10.27
2022-10-07T01:08:12.627Z,10.24
2022-10-07T01:09:15.194Z,10.27
2022-10-07T01:10:20.379Z,10.29
2022-10-07T01:11:33.772Z,10.29
2022-10-07T01:12:51.709Z,10.33
2022-10-07T01:13:55.811Z,10.34
2022-10-07T01:15:27.655Z,10.35
2022-10-07T01:16:56.145Z,10.33
2022-10-07T01:18:26.098Z,10.32
2022-10-07T01:19:47.260Z,10.35
2022-10-07T01:21:05.033Z,10.29
2022-10-07T01:22:13.557Z,10.26
2022-10-07T01:23:46.112Z,10.25
2022-10-07T01:24:51.438Z,10.23
2022-10-07T01:26:48.476Z,10.18
2022-10-07T01:27:57.263Z,10.19
2022-10-07T01:29:04.259Z,10.18
2022-10-07T01:30:08.421Z,10.13
2022-10-07T01:31:12.934Z,10.15
2022-10-07T01:32:22.181Z,10.12
2022-10-07T01:33:29.614Z,10.09
2022-10-07T01:34:34.435Z,10.12
2022-10-07T01:35:37.515Z,10.06
2022-10-07T01:36:51.140Z,9.99
2022-10-07T01:38:00.678Z,9.98
2022-10-07T01:39:09.907Z,9.94
2022-10-07T01:40:16.191Z,9.89
2022-10-07T01:41:23.170Z,9.87
2022-10-07T01:42:28.987Z,9.83
2022-10-07T01:43:33.101Z,9.84
2022-10-07T01:44:35.520Z,9.91
2022-10-07T01:45:41.320Z,9.94
2022-10-07T01:46:44.624Z,9.95
2022-10-07T01:47:50.589Z,9.95
2022-10-07T01:48:54.629Z,9.92
2022-10-07T01:49:57.218Z,9.89
2022-10-07T01:51:02.340Z,9.93
2022-10-07T01:52:07.567Z,9.91
2022-10-07T01:53:27.654Z,9.90
2022-10-07T01:54:50.769Z,9.85
2022-10-07T01:56:02.394Z,9.87
2022-10-07T01:57:18.487Z,9.88
2022-10-07T01:58:50.951Z,9.77
2022-10-07T02:00:11.496Z,9.77
2022-10-07T02:01:29.046Z,9.79
2022-10-07T02:03:00.847Z,9.81
2022-10-07T02:04:25.669Z,9.84
2022-10-07T02:05:40.100Z,9.84
2022-10-07T02:07:05.352Z,9.81
2022-10-07T02:08:22.918Z,9.82
2022-10-07T02:09:40.410Z,9.77
2022-10-07T02:11:00.651Z,9.82
2022-10-07T02:12:13.440Z,9.80
2022-10-07T02:13:48.702Z,9.78
2022-10-07T02:15:05.855Z,9.81
2022-10-07T02:16:48.422Z,9.80
2022-10-07T02:18:02.871Z,9.82
2022-10-07T02:19:15.754Z,9.82
2022-10-07T02:20:21.527Z,9.84
2022-10-07T02:21:29.738Z,9.81
2022-10-07T02:22:34.408Z,9.78
2022-10-07T02:23:40.863Z,9.79
2022-10-07T02:24:47.397Z,9.76
2022-10-07T02:25:53.808Z,9.77
2022-10-07T02:26:59.341Z,9.72
2022-10-07T02:28:05.745Z,9.75
2022-10-07T02:29:12.815Z,9.76
2022-10-07T02:30:19.064Z,9.68
2022-10-07T02:31:26.658Z,9.72
2022-10-07T02:32:30.920Z,9.66
2022-10-07T02:33:34.799Z,9.69
2022-10-07T02:34:41.312Z,9.66
2022-10-07T02:35:46.753Z,9.65
2022-10-07T02:36:53.115Z,9.69
2022-10-07T02:38:00.394Z,9.68
2022-10-07T02:39:05.132Z,9.64
2022-10-07T02:40:12.261Z,9.66
2022-10-07T02:41:33.344Z,9.64
2022-10-07T02:42:55.853Z,9.56
2022-10-07T02:44:07.790Z,9.57
2022-10-07T02:45:21.224Z,9.58
2022-10-07T02:46:32.907Z,9.55
2022-10-07T02:47:51.380Z,9.54
2022-10-07T02:49:09.748Z,9.45
2022-10-07T02:50:17.901Z,9.42
2022-10-07T02:51:25.410Z,9.39
2022-10-07T02:52:31.541Z,9.44
2022-10-07T02:53:36.565Z,9.46
2022-10-07T02:54:44.586Z,9.42
2022-10-07T02:55:50.500Z,9.44
2022-10-07T02:56:56.548Z,9.44
2022-10-07T02:58:04.601Z,9.45
2022-10-07T02:59:10.136Z,9.43
2022-10-07T03:00:14.564Z,9.45
2022-10-07T03:01:29.898Z,9.40
2022-10-07T03:02:42.564Z,9.32
2022-10-07T03:03:46.013Z,9.37
2022-10-07T03:04:48.726Z,9.39
2022-10-07T03:05:52.279Z,9.37
2022-10-07T03:06:55.115Z,9.29
2022-10-07T03:08:06.418Z,9.31
2022-10-07T03:09:09.449Z,9.29
2022-10-07T03:10:11.897Z,9.26
2022-10-07T03:11:14.426Z,9.26
2022-10-07T03:12:17.431Z,9.27
2022-10-07T03:13:19.911Z,9.27
2022-10-07T03:14:27.386Z,9.27
2022-10-07T03:15:29.794Z,9.27
2022-10-07T03:16:32.779Z,9.23
2022-10-07T03:17:35.330Z,9.25
2022-10-07T03:18:38.040Z,9.29
2022-10-07T03:19:46.903Z,9.19
2022-10-07T03:20:51.254Z,9.20
2022-10-07T03:21:54.412Z,9.19
2022-10-07T03:22:56.717Z,9.21
2022-10-07T03:24:00.991Z,9.18
2022-10-07T03:25:06.833Z,9.20
2022-10-07T03:26:09.221Z,9.13
2022-10-07T03:27:11.798Z,9.14
2022-10-07T03:28:15.344Z,9.18
2022-10-07T03:29:17.888Z,9.20
2022-10-07T03:30:24.426Z,9.19
2022-10-07T03:31:29.247Z,9.20
2022-10-07T03:32:34.364Z,9.19
2022-10-07T03:33:37.565Z,9.09
2022-10-07T03:34:41.309Z,9.13
2022-10-07T03:35:44.024Z,9.14
2022-10-07T03:36:46.671Z,9.15
2022-10-07T03:37:49.042Z,9.15
2022-10-07T03:38:52.068Z,9.14
2022-10-07T03:39:55.380Z,9.13
2022-10-07T03:40:57.932Z,9.17
2022-10-07T03:42:01.057Z,9.15
2022-10-07T03:43:07.811Z,9.12
2022-10-07T03:44:10.170Z,9.12
2022-10-07T03:45:12.564Z,9.10
2022-10-07T03:46:14.933Z,9.10
2022-10-07T03:47:18.980Z,9.13
2022-10-07T03:48:21.697Z,9.17
2022-10-07T03:49:24.412Z,9.22
2022-10-07T03:50:27.132Z,9.20
2022-10-07T03:51:29.520Z,9.17
2022-10-07T03:52:32.205Z,9.17
2022-10-07T03:53:34.631Z,9.17
2022-10-07T03:54:37.913Z,9.13
2022-10-07T03:55:41.259Z,9.10
2022-10-07T03:56:47.861Z,9.09
2022-10-07T03:58:00.027Z,9.09
2022-10-07T03:59:10.366Z,9.06
2022-10-07T04:00:13.543Z,9.09
2022-10-07T04:01:28.258Z,9.13
2022-10-07T04:02:36.907Z,9.22
2022-10-07T04:03:39.392Z,9.23
2022-10-07T04:04:43.442Z,9.28
2022-10-07T04:06:01.562Z,9.28
2022-10-07T04:07:05.676Z,9.29
2022-10-07T04:08:15.443Z,9.24
2022-10-07T04:09:21.136Z,9.26
2022-10-07T04:10:24.878Z,9.26
2022-10-07T04:11:27.357Z,9.27
2022-10-07T04:12:33.628Z,9.25
2022-10-07T04:13:37.417Z,9.26
2022-10-07T04:14:40.872Z,9.24
2022-10-07T04:15:43.363Z,9.22
2022-10-07T04:16:46.053Z,9.24
2022-10-07T04:17:49.886Z,9.24
2022-10-07T04:18:56.235Z,9.25
2022-10-07T04:20:00.239Z,9.24
2022-10-07T04:21:03.211Z,9.20
2022-10-07T04:22:08.815Z,9.21
2022-10-07T04:23:12.677Z,9.23
2022-10-07T04:24:15.842Z,9.22
2022-10-07T04:25:37.766Z,9.25
2022-10-07T04:26:45.563Z,9.26
2022-10-07T04:27:57.168Z,9.27
2022-10-07T04:29:00.905Z,9.27
2022-10-07T04:30:05.081Z,9.29
2022-10-07T04:31:17.454Z,9.29
2022-10-07T04:32:25.121Z,9.32
2022-10-07T04:33:33.219Z,9.31
2022-10-07T04:34:35.457Z,9.36
2022-10-07T04:35:41.333Z,9.33
2022-10-07T04:36:44.589Z,9.36
2022-10-07T04:37:55.845Z,9.32
2022-10-07T04:39:02.608Z,9.27
2022-10-07T04:40:13.835Z,9.28
2022-10-07T04:41:16.681Z,9.31
2022-10-07T04:42:37.852Z,9.32
2022-10-07T04:43:40.404Z,9.28
2022-10-07T04:44:47.408Z,9.31
2022-10-07T04:45:53.873Z,9.33
2022-10-07T04:47:00.444Z,9.29
2022-10-07T04:48:08.572Z,9.31
2022-10-07T04:49:12.309Z,9.34
2022-10-07T04:50:14.666Z,9.37
2022-10-07T04:51:26.331Z,9.42
2022-10-07T04:52:36.194Z,9.44
2022-10-07T04:53:39.558Z,9.46
2022-10-07T04:54:43.367Z,9.50
2022-10-07T04:55:48.969Z,9.51
2022-10-07T04:56:52.203Z,9.52
2022-10-07T04:57:58.630Z,9.60
2022-10-07T04:59:01.031Z,9.62
2022-10-07T05:00:05.498Z,9.69
2022-10-07T05:01:10.027Z,9.71
2022-10-07T05:02:15.145Z,9.76
2022-10-07T05:03:20.223Z,9.78
2022-10-07T05:04:24.205Z,9.81
2022-10-07T05:05:31.275Z,9.87
2022-10-07T05:06:34.397Z,9.89
2022-10-07T05:07:36.817Z,9.93
2022-10-07T05:08:42.404Z,9.97
2022-10-07T05:09:46.128Z,9.97
2022-10-07T05:10:54.481Z,10.09
2022-10-07T05:11:56.815Z,10.11
2022-10-07T05:12:59.089Z,10.14
2022-10-07T05:14:02.200Z,10.11
2022-10-07T05:15:06.751Z,10.16
2022-10-07T05:16:09.849Z,10.20
2022-10-07T05:17:14.009Z,10.18
2022-10-07T05:18:16.507Z,10.25
2022-10-07T05:19:20.464Z,10.34
2022-10-07T05:20:23.498Z,10.45
2022-10-07T05:21:25.988Z,10.64
2022-10-07T05:22:28.501Z,10.86
2022-10-07T05:23:31.929Z,11.25
2022-10-07T05:24:36.705Z,11.78
2022-10-07T05:25:39.169Z,12.35
2022-10-07T05:26:41.703Z,13.11
2022-10-07T05:27:44.982Z,13.67
2022-10-07T05:28:49.585Z,14.16
2022-10-07T05:29:57.489Z,14.59
2022-10-07T05:31:14.028Z,14.58
2022-10-07T05:32:18.773Z,14.46
2022-10-07T05:33:21.630Z,14.82
2022-10-07T05:34:25.381Z,15.29
2022-10-07T05:35:32.322Z,15.88
2022-10-07T05:36:35.360Z,16.13
2022-10-07T05:37:39.830Z,16.51
2022-10-07T05:38:42.322Z,17.37
2022-10-07T05:39:44.701Z,17.45
2022-10-07T05:41:02.416Z,18.08
2022-10-07T05:42:07.097Z,18.38
2022-10-07T05:43:16.203Z,18.51
2022-10-07T05:44:18.788Z,18.62
2022-10-07T05:45:22.733Z,17.97
2022-10-07T05:46:25.457Z,17.65
2022-10-07T05:47:33.486Z,17.57
2022-10-07T05:48:39.178Z,18.19
2022-10-07T05:49:44.330Z,19.00
2022-10-07T05:50:47.810Z,19.12
2022-10-07T05:51:50.738Z,18.64
2022-10-07T05:52:53.044Z,18.35
2022-10-07T05:53:58.692Z,18.67
2022-10-07T05:55:07.667Z,18.15
2022-10-07T05:56:12.860Z,16.60
2022-10-07T05:57:15.190Z,14.87
2022-10-07T05:58:19.460Z,14.01
2022-10-07T05:59:22.415Z,13.83
2022-10-07T06:00:25.291Z,13.94
2022-10-07T06:01:28.639Z,13.89
2022-10-07T06:02:34.915Z,13.91
2022-10-07T06:03:38.159Z,13.75
2022-10-07T06:04:43.556Z,13.83
2022-10-07T06:05:47.937Z,13.89
2022-10-07T06:06:52.394Z,13.89
2022-10-07T06:07:54.723Z,14.04
2022-10-07T06:09:17.068Z,14.08
2022-10-07T06:10:38.306Z,14.02
2022-10-07T06:11:59.700Z,14.09
2022-10-07T06:13:08.181Z,14.05
2022-10-07T06:14:12.508Z,14.23
2022-10-07T06:15:14.872Z,14.46
2022-10-07T06:16:24.155Z,16.08
2022-10-07T06:17:27.571Z,17.76
2022-10-07T06:18:33.012Z,18.47
2022-10-07T06:19:37.862Z,19.82
2022-10-07T06:20:40.299Z,20.30
2022-10-07T06:21:42.659Z,20.98
2022-10-07T06:22:46.536Z,21.23
2022-10-07T06:23:52.256Z,21.76
2022-10-07T06:25:01.185Z,21.92
2022-10-07T06:26:07.378Z,21.89
2022-10-07T06:27:10.198Z,21.92
2022-10-07T06:28:14.429Z,22.13
2022-10-07T06:29:16.946Z,22.43
2022-10-07T06:30:21.900Z,22.32
2022-10-07T06:31:26.030Z,22.32
2022-10-07T06:32:35.623Z,22.70
2022-10-07T06:33:38.656Z,22.64
2022-10-07T06:34:40.994Z,22.69
2022-10-07T06:35:43.513Z,23.11
2022-10-07T06:36:45.859Z,22.60
2022-10-07T06:37:48.586Z,22.92
2022-10-07T06:38:53.700Z,23.17
2022-10-07T06:40:00.459Z,22.85
2022-10-07T06:41:06.109Z,21.90
2022-10-07T06:42:09.798Z,21.95
2022-10-07T06:43:21.181Z,22.89
2022-10-07T06:44:30.474Z,22.39
2022-10-07T06:45:34.431Z,22.24
2022-10-07T06:46:37.334Z,22.64
2022-10-07T06:47:39.706Z,23.06
2022-10-07T06:48:46.263Z,21.83
2022-10-07T06:49:50.261Z,21.97
2022-10-07T06:50:53.787Z,22.34
2022-10-07T06:51:56.311Z,22.71
2022-10-07T06:52:59.941Z,22.30
2022-10-07T06:54:05.316Z,21.05
2022-10-07T06:55:11.731Z,20.55
2022-10-07T06:56:14.974Z,20.20
2022-10-07T06:57:44.233Z,21.20
2022-10-07T06:58:43.119Z,22.43
2022-10-07T06:59:47.662Z,22.96
2022-10-07T07:00:52.701Z,23.50
2022-10-07T07:01:57.107Z,24.31
2022-10-07T07:03:02.363Z,24.43
2022-10-07T07:04:05.358Z,24.00
2022-10-07T07:05:09.184Z,24.01
2022-10-07T07:06:13.960Z,23.23
2022-10-07T07:07:16.561Z,22.10
2022-10-07T07:08:20.098Z,21.86
2022-10-07T07:09:23.076Z,21.88
2022-10-07T07:10:27.884Z,22.84
2022-10-07T07:11:37.098Z,23.41
2022-10-07T07:12:55.659Z,23.18
2022-10-07T07:13:58.723Z,23.46
2022-10-07T07:15:02.333Z,22.96
2022-10-07T07:16:06.667Z,23.35
2022-10-07T07:17:09.722Z,23.39
2022-10-07T07:18:12.234Z,23.43
2022-10-07T07:19:16.277Z,23.46
2022-10-07T07:20:18.509Z,23.26
2022-10-07T07:21:22.035Z,23.96
2022-10-07T07:22:24.737Z,24.40
2022-10-07T07:23:28.528Z,24.46
2022-10-07T07:24:31.290Z,24.35
2022-10-07T07:25:38.206Z,24.22
2022-10-07T07:26:40.623Z,23.61
2022-10-07T07:27:46.962Z,23.44
2022-10-07T07:28:53.248Z,23.67
2022-10-07T07:29:56.004Z,24.10
2022-10-07T07:30:58.279Z,23.47
2022-10-07T07:32:01.507Z,23.70
2022-10-07T07:33:06.749Z,23.76
2022-10-07T07:34:12.317Z,23.65
2022-10-07T07:35:15.338Z,24.43
2022-10-07T07:36:20.533Z,23.77
2022-10-07T07:37:25.072Z,24.31
2022-10-07T07:38:32.664Z,24.52
2022-10-07T07:39:35.027Z,24.50
2022-10-07T07:40:42.764Z,24.38
2022-10-07T07:41:47.919Z,23.92
2022-10-07T07:42:55.040Z,23.64
2022-10-07T07:43:59.510Z,23.44
2022-10-07T07:45:01.721Z,22.98
2022-10-07T07:46:05.231Z,22.68
2022-10-07T07:47:11.356Z,22.68
2022-10-07T07:48:17.697Z,22.93
2022-10-07T07:49:22.692Z,23.32
2022-10-07T07:50:27.595Z,23.13
2022-10-07T07:51:33.317Z,22.70
2022-10-07T07:52:36.323Z,22.61
2022-10-07T07:53:40.737Z,22.50
2022-10-07T07:54:44.072Z,22.87
2022-10-07T07:55:58.446Z,22.92
2022-10-07T07:57:02.311Z,22.51
2022-10-07T07:58:11.988Z,22.34
2022-10-07T07:59:16.128Z,22.47
2022-10-07T08:00:19.428Z,22.15
2022-10-07T08:01:33.031Z,22.32
2022-10-07T08:02:35.522Z,22.29
2022-10-07T08:03:40.460Z,22.51
2022-10-07T08:04:43.705Z,22.20
2022-10-07T08:05:48.104Z,22.24
2022-10-07T08:06:51.402Z,22.18
2022-10-07T08:07:55.993Z,22.09
2022-10-07T08:09:07.991Z,22.05
2022-10-07T08:10:21.041Z,21.84
2022-10-07T08:11:23.959Z,22.06
2022-10-07T08:12:26.286Z,21.88
2022-10-07T08:13:30.021Z,22.25
2022-10-07T08:14:32.553Z,21.63
2022-10-07T08:15:34.882Z,21.96
2022-10-07T08:16:38.182Z,21.99
2022-10-07T08:17:46.430Z,22.02
2022-10-07T08:18:51.580Z,21.93
2022-10-07T08:19:55.824Z,22.03
2022-10-07T08:21:03.315Z,22.17
2022-10-07T08:22:09.711Z,22.36
2022-10-07T08:23:15.119Z,22.12
2022-10-07T08:24:19.914Z,21.90
2022-10-07T08:25:22.729Z,22.21
2022-10-07T08:26:28.993Z,22.13
2022-10-07T08:27:33.680Z,22.28
2022-10-07T08:28:37.379Z,22.52
2022-10-07T08:29:39.726Z,22.59
2022-10-07T08:30:42.252Z,22.71
2022-10-07T08:31:47.533Z,23.06
2022-10-07T08:32:49.966Z,23.03
2022-10-07T08:33:57.037Z,22.75
2022-10-07T08:34:59.438Z,23.16
2022-10-07T08:36:04.013Z,23.07
2022-10-07T08:37:13.021Z,23.07
2022-10-07T08:38:19.172Z,22.92
2022-10-07T08:39:25.900Z,23.00
2022-10-07T08:40:28.362Z,22.62
2022-10-07T08:41:42.087Z,23.00
2022-10-07T08:42:45.384Z,23.19
2022-10-07T08:43:51.210Z,22.88
2022-10-07T08:44:56.200Z,23.05
2022-10-07T08:46:02.049Z,22.93
2022-10-07T08:47:57.908Z,23.26
2022-10-07T08:49:06.956Z,22.99
2022-10-07T08:50:22.254Z,23.60
2022-10-07T08:51:41.757Z,23.44
2022-10-07T08:53:09.207Z,23.37
2022-10-07T08:54:20.066Z,23.64
2022-10-07T08:55:32.975Z,23.75
2022-10-07T08:56:35.525Z,23.23
2022-10-07T08:57:49.129Z,23.76
2022-10-07T08:59:10.953Z,23.79
2022-10-07T09:00:22.371Z,23.70
2022-10-07T09:01:32.298Z,23.99
2022-10-07T09:02:49.089Z,24.16
2022-10-07T09:04:15.463Z,24.05
2022-10-07T09:05:30.133Z,23.35
2022-10-07T09:06:53.579Z,24.14
2022-10-07T09:08:06.026Z,24.49
2022-10-07T09:09:24.161Z,24.10
2022-10-07T09:10:53.547Z,24.21
2022-10-07T09:12:00.441Z,24.41
2022-10-07T09:13:19.100Z,24.53
2022-10-07T09:14:48.112Z,24.37
2022-10-07T09:16:04.176Z,24.15
2022-10-07T09:17:18.165Z,24.33
2022-10-07T09:18:26.817Z,24.84
2022-10-07T09:19:42.246Z,25.09
2022-10-07T09:20:52.588Z,25.38
2022-10-07T09:22:00.557Z,24.13
2022-10-07T09:23:05.882Z,24.85
2022-10-07T09:24:20.086Z,25.18
2022-10-07T09:25:25.317Z,24.93
2022-10-07T09:26:28.043Z,24.91
2022-10-07T09:27:30.427Z,25.55
2022-10-07T09:28:33.714Z,25.28
2022-10-07T09:29:36.788Z,25.32
2022-10-07T09:30:39.441Z,25.75
2022-10-07T09:31:41.723Z,25.75
2022-10-07T09:32:46.250Z,26.02
2022-10-07T09:33:53.190Z,25.68
2022-10-07T09:34:55.492Z,25.46
2022-10-07T09:36:05.889Z,25.64
2022-10-07T09:37:19.938Z,25.65
2022-10-07T09:38:43.985Z,25.39
2022-10-07T09:39:47.947Z,25.15
2022-10-07T09:41:08.884Z,25.54
2022-10-07T09:42:38.222Z,25.65
2022-10-07T09:44:01.984Z,25.59
2022-10-07T09:45:21.575Z,24.97
2022-10-07T09:46:32.421Z,25.76
2022-10-07T09:47:42.257Z,26.33
2022-10-07T09:48:53.088Z,26.24
2022-10-07T09:49:59.867Z,26.09
2022-10-07T09:51:25.703Z,25.91
2022-10-07T09:52:30.524Z,25.96
2022-10-07T09:53:33.633Z,25.99
2022-10-07T09:54:39.574Z,25.39
2022-10-07T09:55:43.777Z,26.06
2022-10-07T09:56:47.438Z,25.96
2022-10-07T09:58:45.272Z,25.86
2022-10-07T09:59:47.776Z,25.65
2022-10-07T10:00:51.989Z,26.22
2022-10-07T10:01:57.723Z,26.67
2022-10-07T10:03:07.848Z,26.33
2022-10-07T10:04:17.294Z,25.91
2022-10-07T10:05:30.339Z,26.29
2022-10-07T10:06:32.655Z,26.65
2022-10-07T10:07:36.748Z,26.78
2022-10-07T10:08:44.589Z,26.15
2022-10-07T10:10:27.334Z,25.94
2022-10-07T10:11:30.020Z,25.80
2022-10-07T10:12:45.474Z,26.05
2022-10-07T10:13:50.321Z,26.11
2022-10-07T10:14:55.434Z,26.88
2022-10-07T10:15:58.626Z,26.75
2022-10-07T10:17:01.228Z,26.82
2022-10-07T10:18:29.213Z,26.78
2022-10-07T10:19:36.432Z,27.14
2022-10-07T10:20:43.685Z,27.33
2022-10-07T10:21:52.474Z,26.81
2022-10-07T10:22:55.286Z,26.68
2022-10-07T10:24:00.393Z,26.26
2022-10-07T10:25:22.614Z,26.76
2022-10-07T10:26:42.081Z,26.48
2022-10-07T10:28:01.990Z,27.11
2022-10-07T10:29:19.364Z,26.76
2022-10-07T10:30:23.953Z,27.38
2022-10-07T10:31:36.076Z,27.73
2022-10-07T10:33:09.854Z,27.30
2022-10-07T10:34:41.357Z,27.32
2022-10-07T10:35:49.715Z,27.85
2022-10-07T10:37:27.645Z,27.21
2022-10-07T10:38:47.288Z,26.91
2022-10-07T10:40:07.831Z,26.60
2022-10-07T10:41:39.567Z,25.49
2022-10-07T10:43:13.443Z,26.52
2022-10-07T10:44:38.779Z,26.56
2022-10-07T10:45:49.567Z,26.81
2022-10-07T10:47:00.337Z,27.40
2022-10-07T10:48:40.172Z,26.50
2022-10-07T10:50:16.055Z,26.44
2022-10-07T10:51:52.996Z,26.90
2022-10-07T10:53:24.505Z,27.13
2022-10-07T10:54:43.521Z,26.80
2022-10-07T10:56:04.043Z,26.79
2022-10-07T10:57:31.899Z,26.67
2022-10-07T10:58:54.388Z,26.29
2022-10-07T11:00:19.095Z,27.24
2022-10-07T11:01:41.993Z,26.35
2022-10-07T11:02:59.562Z,26.34
2022-10-07T11:04:05.139Z,27.06
2022-10-07T11:05:22.320Z,27.16
2022-10-07T11:06:28.815Z,27.29
2022-10-07T11:07:39.529Z,26.44
2022-10-07T11:08:41.901Z,26.41
2022-10-07T11:09:50.005Z,26.13
2022-10-07T11:10:59.818Z,27.30
2022-10-07T11:12:06.149Z,27.43
2022-10-07T11:13:19.176Z,27.20
2022-10-07T11:14:23.883Z,27.35
2022-10-07T11:15:35.302Z,26.74
2022-10-07T11:16:48.573Z,27.15
2022-10-07T11:17:53.804Z,26.91
2022-10-07T11:18:57.041Z,27.01
2022-10-07T11:20:14.162Z,26.90
2022-10-07T11:21:24.537Z,26.79
2022-10-07T11:22:36.649Z,26.04
2022-10-07T11:23:42.868Z,26.50
2022-10-07T11:24:55.034Z,27.17
2022-10-07T11:26:02.544Z,27.22
2022-10-07T11:27:15.162Z,27.17
2022-10-07T11:28:23.204Z,27.20
2022-10-07T11:30:04.903Z,27.07
2022-10-07T11:31:17.659Z,27.32
2022-10-07T11:32:45.673Z,27.25
2022-10-07T11:34:09.530Z,27.10
2022-10-07T11:35:21.165Z,27.44
2022-10-07T11:36:39.108Z,26.27
2022-10-07T11:37:56.537Z,27.03
2022-10-07T11:38:58.937Z,27.51
2022-10-07T11:40:05.666Z,26.64
2022-10-07T11:41:10.518Z,26.45
2022-10-07T11:42:26.742Z,27.33
2022-10-07T11:43:49.379Z,27.11
2022-10-07T11:45:00.434Z,27.19
2022-10-07T11:46:11.473Z,27.12
2022-10-07T11:47:20.310Z,27.42
2022-10-07T11:49:03.449Z,27.16
2022-10-07T11:50:20.742Z,27.09
2022-10-07T11:51:32.620Z,27.04
2022-10-07T11:52:41.288Z,26.97
2022-10-07T11:53:45.037Z,26.59
2022-10-07T11:54:51.829Z,26.73
2022-10-07T11:56:12.633Z,27.47
2022-10-07T11:57:22.882Z,26.91
2022-10-07T11:58:37.340Z,27.32
2022-10-07T11:59:44.445Z,28.09
2022-10-07T12:00:47.031Z,28.10
2022-10-07T12:01:52.817Z,27.99
2022-10-07T12:02:57.469Z,27.28
2022-10-07T12:04:22.962Z,27.63
2022-10-07T12:05:33.960Z,27.76
2022-10-07T12:06:36.254Z,27.54
2022-10-07T12:08:00.039Z,27.35
2022-10-07T12:09:40.628Z,27.89
2022-10-07T12:10:43.146Z,27.99
2022-10-07T12:11:47.977Z,27.96
2022-10-07T12:12:53.898Z,27.27
2022-10-07T12:14:36.973Z,27.62
2022-10-07T12:15:45.332Z,26.59
2022-10-07T12:16:54.866Z,26.46
2022-10-07T12:18:19.925Z,26.58
2022-10-07T12:19:25.438Z,26.75
2022-10-07T12:20:34.694Z,26.28
2022-10-07T12:21:59.781Z,26.30
2022-10-07T12:23:17.592Z,26.70
2022-10-07T12:24:46.250Z,27.42
2022-10-07T12:25:59.799Z,27.35
2022-10-07T12:27:31.096Z,27.23
2022-10-07T12:28:40.917Z,26.88
2022-10-07T12:29:58.858Z,26.70
2022-10-07T12:31:09.745Z,26.84
2022-10-07T12:32:49.628Z,26.75
2022-10-07T12:33:56.216Z,26.83
2022-10-07T12:35:54.236Z,26.63
2022-10-07T12:37:36.780Z,26.51
2022-10-07T12:38:39.300Z,26.70
2022-10-07T12:39:42.042Z,26.37
2022-10-07T12:40:59.521Z,27.21
2022-10-07T12:42:05.207Z,27.02
2022-10-07T12:43:20.023Z,27.30
2022-10-07T12:44:52.992Z,27.30
2022-10-07T12:45:56.573Z,26.75
2022-10-07T12:46:59.266Z,27.40
2022-10-07T12:48:03.001Z,27.29
2022-10-07T12:49:13.469Z,27.22
2022-10-07T12:50:19.895Z,26.91
2022-10-07T12:51:31.257Z,26.52
2022-10-07T12:52:53.159Z,26.49
2022-10-07T12:53:59.348Z,26.80
2022-10-07T12:55:11.267Z,26.65
2022-10-07T12:56:21.638Z,26.71
2022-10-07T12:58:55.794Z,27.42
2022-10-07T13:00:12.418Z,26.87
2022-10-07T13:01:53.755Z,26.85
2022-10-07T13:03:22.238Z,26.99
2022-10-07T13:04:39.356Z,26.99
2022-10-07T13:06:09.964Z,26.66
2022-10-07T13:07:57.721Z,26.45
2022-10-07T13:09:20.283Z,25.86
2022-10-07T13:10:40.592Z,26.44
2022-10-07T13:11:52.425Z,26.22
2022-10-07T13:13:03.076Z,26.36
2022-10-07T13:14:28.977Z,26.30
2022-10-07T13:15:42.909Z,26.76
2022-10-07T13:16:55.191Z,26.78
2022-10-07T13:18:12.754Z,26.87
2022-10-07T13:19:20.372Z,27.18
2022-10-07T13:22:16.654Z,26.78
2022-10-07T13:23:26.841Z,26.70
2022-10-07T13:24:32.460Z,26.70
2022-10-07T13:25:34.834Z,26.91
2022-10-07T13:26:37.570Z,26.40
2022-10-07T13:27:42.174Z,26.53
2022-10-07T13:28:53.660Z,27.02
2022-10-07T13:30:00.701Z,26.69
2022-10-07T13:31:36.111Z,26.81
2022-10-07T13:32:38.779Z,26.62
2022-10-07T13:33:43.458Z,26.29
2022-10-07T13:34:46.603Z,25.81
2022-10-07T13:35:50.428Z,26.02
2022-10-07T13:36:52.927Z,26.20
2022-10-07T13:37:55.483Z,25.76
2022-10-07T13:39:20.696Z,26.10
2022-10-07T13:40:28.487Z,25.91
2022-10-07T13:41:30.925Z,25.99
2022-10-07T13:42:33.423Z,26.29
2022-10-07T13:43:37.696Z,26.30
2022-10-07T13:44:43.929Z,26.22
2022-10-07T13:45:47.374Z,26.51
2022-10-07T13:47:01.556Z,26.72
2022-10-07T13:48:03.999Z,26.03
2022-10-07T13:49:06.897Z,25.34
2022-10-07T13:50:16.786Z,25.91
2022-10-07T13:51:27.947Z,26.03
2022-10-07T13:52:40.125Z,25.63
2022-10-07T13:53:43.076Z,26.05
2022-10-07T13:54:51.690Z,26.03
2022-10-07T13:56:18.871Z,25.44
2022-10-07T13:57:22.179Z,25.47
2022-10-07T13:58:25.227Z,25.27
2022-10-07T13:59:29.387Z,25.20
2022-10-07T14:00:34.770Z,25.07
2022-10-07T14:01:40.327Z,25.33
2022-10-07T14:02:43.895Z,25.79
2022-10-07T14:04:08.255Z,26.06
2022-10-07T14:05:24.168Z,25.28
2022-10-07T14:06:36.866Z,25.31
2022-10-07T14:07:42.073Z,25.24
2022-10-07T14:08:50.777Z,24.71
2022-10-07T14:09:58.908Z,25.09
2022-10-07T14:11:10.425Z,25.27
2022-10-07T14:12:21.153Z,25.31
2022-10-07T14:13:24.227Z,24.77
2022-10-07T14:14:32.704Z,24.89
2022-10-07T14:15:36.997Z,24.61
2022-10-07T14:16:39.567Z,24.80
2022-10-07T14:17:48.207Z,24.52
2022-10-07T14:18:52.858Z,24.24
2022-10-07T14:20:05.930Z,24.39
2022-10-07T14:21:13.442Z,24.52
2022-10-07T14:22:53.667Z,24.44
2022-10-07T14:23:56.127Z,23.91
2022-10-07T14:25:01.842Z,23.81
2022-10-07T14:26:09.929Z,23.61
2022-10-07T14:27:52.913Z,23.76
2022-10-07T14:28:55.740Z,24.08
2022-10-07T14:29:59.053Z,24.04
2022-10-07T14:31:26.253Z,23.86
2022-10-07T14:32:47.960Z,23.96
2022-10-07T14:34:24.253Z,23.74
2022-10-07T14:35:27.384Z,23.58
2022-10-07T14:36:30.269Z,23.30
2022-10-07T14:37:32.714Z,23.25
2022-10-07T14:38:35.217Z,23.30
2022-10-07T14:39:39.260Z,23.47
2022-10-07T14:40:41.651Z,23.17
2022-10-07T14:41:44.258Z,23.18
2022-10-07T14:42:50.248Z,23.34
2022-10-07T14:43:53.627Z,23.33
2022-10-07T14:44:57.802Z,23.29
2022-10-07T14:46:19.022Z,23.13
2022-10-07T14:47:28.399Z,23.04
2022-10-07T14:48:30.805Z,23.05
2022-10-07T14:49:33.403Z,23.02
2022-10-07T14:50:35.989Z,23.07
2022-10-07T14:51:39.085Z,23.02
2022-10-07T14:52:47.641Z,22.68
2022-10-07T14:53:53.022Z,22.63
2022-10-07T14:55:00.742Z,22.51
2022-10-07T14:56:04.510Z,22.33
2022-10-07T14:57:09.375Z,22.28
2022-10-07T14:58:12.378Z,22.14
2022-10-07T14:59:15.244Z,22.16
2022-10-07T15:00:20.855Z,22.06